createdAt,value
2018-12-21T00:00:17.153Z,25.27
2018-12-21T00:00:50.884Z,25.95
2018-12-21T00:01:24.228Z,25.15
2018-12-21T00:01:57.566Z,25.32
2018-12-21T00:02:30.872Z,26.70
2018-12-21T00:03:04.234Z,25.20
2018-12-21T00:03:37.534Z,26.00
2018-12-21T00:04:10.846Z,25.43
2018-12-21T00:04:44.208Z,25.20
2018-12-21T00:05:17.656Z,25.57
2018-12-21T00:05:50.970Z,25.35
2018-12-21T00:06:24.291Z,25.80
2018-12-21T00:06:57.637Z,25.37
2018-12-21T00:07:30.946Z,26.23
2018-12-21T00:08:04.374Z,26.10
2018-12-21T00:08:37.712Z,25.72
2018-12-21T00:09:11.018Z,25.20
2018-12-21T00:09:44.328Z,25.50
2018-12-21T00:10:17.655Z,25.45
2018-12-21T00:10:51.099Z,26.05
2018-12-21T00:11:24.418Z,25.75
2018-12-21T00:11:57.712Z,26.12
2018-12-21T00:12:31.016Z,26.05
2018-12-21T00:13:04.345Z,27.65
2018-12-21T00:13:37.638Z,25.62
2018-12-21T00:14:10.974Z,25.70
2018-12-21T00:14:44.322Z,26.62
2018-12-21T00:15:17.646Z,25.95
2018-12-21T00:15:50.978Z,26.33
2018-12-21T00:16:24.270Z,26.12
2018-12-21T00:16:57.589Z,26.02
2018-12-21T00:17:34.645Z,25.90
2018-12-21T00:18:06.291Z,26.07
2018-12-21T00:18:39.626Z,26.27
2018-12-21T00:19:12.983Z,26.48
2018-12-21T00:19:46.280Z,25.62
2018-12-21T00:20:19.602Z,25.55
2018-12-21T00:20:52.906Z,25.75
2018-12-21T00:21:26.217Z,25.75
2018-12-21T00:21:59.544Z,26.65
2018-12-21T00:22:32.894Z,27.65
2018-12-21T00:23:06.337Z,26.52
2018-12-21T00:23:39.654Z,26.90
2018-12-21T00:24:12.961Z,28.90
2018-12-21T00:24:47.240Z,28.92
2018-12-21T00:25:20.590Z,27.15
2018-12-21T00:25:53.908Z,25.80
2018-12-21T00:26:27.215Z,26.70
2018-12-21T00:27:00.544Z,27.05
2018-12-21T00:27:33.936Z,26.68
2018-12-21T00:28:07.228Z,26.48
2018-12-21T00:28:40.528Z,27.60
2018-12-21T00:29:13.804Z,26.62
2018-12-21T00:29:47.162Z,26.37
2018-12-21T00:30:22.110Z,26.90
2018-12-21T00:31:01.014Z,26.48
2018-12-21T00:31:40.086Z,26.80
2018-12-21T00:32:19.184Z,26.02
2018-12-21T00:32:58.114Z,26.97
2018-12-21T00:33:37.072Z,26.60
2018-12-21T00:34:16.283Z,25.72
2018-12-21T00:34:55.351Z,26.60
2018-12-21T00:35:34.239Z,26.50
2018-12-21T00:36:13.174Z,26.40
2018-12-21T00:36:52.198Z,26.73
2018-12-21T00:37:31.337Z,26.97
2018-12-21T00:38:10.326Z,26.70
2018-12-21T00:38:49.521Z,28.25
2018-12-21T00:39:28.709Z,26.30
2018-12-21T00:40:07.988Z,27.90
2018-12-21T00:40:47.181Z,26.20
2018-12-21T00:41:20.162Z,27.20
2018-12-21T00:41:53.015Z,26.42
2018-12-21T00:42:32.489Z,26.55
2018-12-21T00:43:11.294Z,26.30
2018-12-21T00:43:53.183Z,26.80
2018-12-21T00:44:32.614Z,29.75
2018-12-21T00:45:10.801Z,27.02
2018-12-21T00:45:46.766Z,26.68
2018-12-21T00:46:26.849Z,26.82
2018-12-21T00:47:04.047Z,27.05
2018-12-21T00:47:37.364Z,26.82
2018-12-21T00:48:10.698Z,29.67
2018-12-21T00:48:44.177Z,27.07
2018-12-21T00:49:17.865Z,27.25
2018-12-21T00:49:52.309Z,27.55
2018-12-21T00:50:25.725Z,31.17
2018-12-21T00:50:59.180Z,26.80
2018-12-21T00:51:32.616Z,27.27
2018-12-21T00:52:06.092Z,30.30
2018-12-21T00:52:39.432Z,26.10
2018-12-21T00:53:12.751Z,26.73
2018-12-21T00:53:46.043Z,26.77
2018-12-21T00:54:19.478Z,26.35
2018-12-21T00:54:52.875Z,26.80
2018-12-21T00:55:26.189Z,28.02
2018-12-21T00:55:59.511Z,26.10
2018-12-21T00:56:32.855Z,35.20
2018-12-21T00:57:06.313Z,29.45
2018-12-21T00:57:39.621Z,30.57
2018-12-21T00:58:12.968Z,27.00
2018-12-21T00:58:46.275Z,26.77
2018-12-21T00:59:19.720Z,28.27
2018-12-21T00:59:53.006Z,26.77
2018-12-21T01:00:26.637Z,28.10
2018-12-21T01:01:00.075Z,27.40
2018-12-21T01:01:33.551Z,25.97
2018-12-21T01:02:06.915Z,27.35
2018-12-21T01:02:40.407Z,27.37
2018-12-21T01:03:13.847Z,25.25
2018-12-21T01:03:47.257Z,31.90
2018-12-21T01:04:20.555Z,27.87
2018-12-21T01:04:53.881Z,25.77
2018-12-21T01:05:27.201Z,25.05
2018-12-21T01:06:00.907Z,26.15
2018-12-21T01:06:35.405Z,25.82
2018-12-21T01:07:08.749Z,27.58
2018-12-21T01:07:42.323Z,28.17
2018-12-21T01:08:15.864Z,25.55
2018-12-21T01:08:49.319Z,25.00
2018-12-21T01:09:22.677Z,26.52
2018-12-21T01:09:56.677Z,26.12
2018-12-21T01:10:30.017Z,31.33
2018-12-21T01:11:03.365Z,29.65
2018-12-21T01:11:36.785Z,25.23
2018-12-21T01:12:10.923Z,26.90
2018-12-21T01:12:44.296Z,25.72
2018-12-21T01:13:17.692Z,27.87
2018-12-21T01:13:51.148Z,25.87
2018-12-21T01:14:24.590Z,25.62
2018-12-21T01:14:57.899Z,25.52
2018-12-21T01:15:31.277Z,25.32
2018-12-21T01:16:04.727Z,27.95
2018-12-21T01:16:38.060Z,27.00
2018-12-21T01:17:11.347Z,28.90
2018-12-21T01:17:44.646Z,25.77
2018-12-21T01:18:18.030Z,29.00
2018-12-21T01:18:51.579Z,25.57
2018-12-21T01:19:25.047Z,26.90
2018-12-21T01:19:58.398Z,25.32
2018-12-21T01:20:32.747Z,25.80
2018-12-21T01:21:06.594Z,25.30
2018-12-21T01:21:40.130Z,27.25
2018-12-21T01:22:13.428Z,25.75
2018-12-21T01:22:46.708Z,25.02
2018-12-21T01:23:20.119Z,30.43
2018-12-21T01:23:53.431Z,25.17
2018-12-21T01:24:26.818Z,27.93
2018-12-21T01:25:00.141Z,25.17
2018-12-21T01:25:33.468Z,25.52
2018-12-21T01:26:06.771Z,25.95
2018-12-21T01:26:40.055Z,25.32
2018-12-21T01:27:13.359Z,25.37
2018-12-21T01:27:46.720Z,28.00
2018-12-21T01:28:20.061Z,25.20
2018-12-21T01:28:53.415Z,25.43
2018-12-21T01:29:26.713Z,25.55
2018-12-21T01:30:00.001Z,27.67
2018-12-21T01:30:33.443Z,25.15
2018-12-21T01:31:08.732Z,25.12
2018-12-21T01:31:42.035Z,26.77
2018-12-21T01:32:15.405Z,25.43
2018-12-21T01:33:35.486Z,25.05
2018-12-21T01:34:08.910Z,25.10
2018-12-21T01:34:42.197Z,25.93
2018-12-21T01:35:15.557Z,25.08
2018-12-21T01:35:48.963Z,25.62
2018-12-21T01:36:22.313Z,25.60
2018-12-21T01:36:55.633Z,29.60
2018-12-21T01:37:28.926Z,25.15
2018-12-21T01:38:02.248Z,24.75
2018-12-21T01:38:35.664Z,25.02
2018-12-21T01:39:08.977Z,24.77
2018-12-21T01:39:42.261Z,25.20
2018-12-21T01:40:15.619Z,24.98
2018-12-21T01:40:48.905Z,25.68
2018-12-21T01:41:22.339Z,25.30
2018-12-21T01:41:55.625Z,25.25
2018-12-21T01:42:28.945Z,24.55
2018-12-21T01:43:02.269Z,25.02
2018-12-21T01:43:35.611Z,24.77
2018-12-21T01:44:08.887Z,24.82
2018-12-21T01:44:42.187Z,25.68
2018-12-21T01:45:15.613Z,28.73
2018-12-21T01:45:48.935Z,25.75
2018-12-21T01:46:22.381Z,25.12
2018-12-21T01:46:55.695Z,24.12
2018-12-21T01:47:29.042Z,24.85
2018-12-21T01:48:02.369Z,24.90
2018-12-21T01:48:35.708Z,24.82
2018-12-21T01:49:08.997Z,25.30
2018-12-21T01:49:42.304Z,26.05
2018-12-21T01:50:15.618Z,24.90
2018-12-21T01:50:48.930Z,29.23
2018-12-21T01:51:22.514Z,24.55
2018-12-21T01:51:56.090Z,24.67
2018-12-21T01:52:29.396Z,24.92
2018-12-21T01:53:02.815Z,25.10
2018-12-21T01:53:36.129Z,24.55
2018-12-21T01:54:09.433Z,25.40
2018-12-21T01:54:42.770Z,24.47
2018-12-21T01:55:16.100Z,25.35
2018-12-21T01:55:49.427Z,25.10
2018-12-21T01:56:22.736Z,25.65
2018-12-21T01:56:56.016Z,25.55
2018-12-21T01:57:29.316Z,24.37
2018-12-21T01:58:02.760Z,24.63
2018-12-21T01:58:36.072Z,24.75
2018-12-21T01:59:09.479Z,26.25
2018-12-21T01:59:42.806Z,25.92
2018-12-21T02:00:16.130Z,25.45
2018-12-21T02:00:49.473Z,28.45
2018-12-21T02:01:22.938Z,24.98
2018-12-21T02:01:56.462Z,25.48
2018-12-21T02:02:29.766Z,26.00
2018-12-21T02:03:03.198Z,26.25
2018-12-21T02:03:36.636Z,25.90
2018-12-21T02:04:09.952Z,25.35
2018-12-21T02:04:43.268Z,25.62
2018-12-21T02:05:16.708Z,26.17
2018-12-21T02:05:50.143Z,26.55
2018-12-21T02:06:23.509Z,26.12
2018-12-21T02:06:56.825Z,25.75
2018-12-21T02:07:30.148Z,28.87
2018-12-21T02:08:03.578Z,25.48
2018-12-21T02:08:36.945Z,29.48
2018-12-21T02:09:10.246Z,25.90
2018-12-21T02:09:43.560Z,25.15
2018-12-21T02:11:54.168Z,26.60
2018-12-21T02:12:27.496Z,26.12
2018-12-21T02:13:00.875Z,26.30
2018-12-21T02:13:34.205Z,25.90
2018-12-21T02:14:07.584Z,25.60
2018-12-21T02:14:41.117Z,25.50
2018-12-21T02:15:14.449Z,25.92
2018-12-21T02:15:47.822Z,26.45
2018-12-21T02:16:21.136Z,26.05
2018-12-21T02:16:54.469Z,25.35
2018-12-21T02:17:27.777Z,26.93
2018-12-21T02:18:01.094Z,26.35
2018-12-21T02:18:34.420Z,25.95
2018-12-21T02:19:07.736Z,26.30
2018-12-21T02:19:41.100Z,25.48
2018-12-21T02:20:14.533Z,30.88
2018-12-21T02:20:47.851Z,27.77
2018-12-21T02:21:21.176Z,25.82
2018-12-21T02:21:55.963Z,25.43
2018-12-21T02:22:29.660Z,26.33
2018-12-21T02:23:02.989Z,26.55
2018-12-21T02:23:36.328Z,26.27
2018-12-21T02:24:09.611Z,25.85
2018-12-21T02:24:42.936Z,26.33
2018-12-21T02:25:16.267Z,26.33
2018-12-21T02:25:49.559Z,25.52
2018-12-21T02:26:22.894Z,26.37
2018-12-21T02:26:56.231Z,26.33
2018-12-21T02:27:29.553Z,30.87
2018-12-21T02:28:02.977Z,29.98
2018-12-21T02:28:36.265Z,26.57
2018-12-21T02:29:09.579Z,25.60
2018-12-21T02:29:42.875Z,25.50
2018-12-21T02:30:16.222Z,26.12
2018-12-21T02:30:50.693Z,25.92
2018-12-21T02:31:24.023Z,25.72
2018-12-21T02:31:57.353Z,26.27
2018-12-21T02:32:30.662Z,25.88
2018-12-21T02:33:03.958Z,25.37
2018-12-21T02:33:37.245Z,25.55
2018-12-21T02:34:10.598Z,25.60
2018-12-21T02:34:43.900Z,25.45
2018-12-21T02:35:17.253Z,25.55
2018-12-21T02:35:50.559Z,25.25
2018-12-21T02:36:23.853Z,25.17
2018-12-21T02:36:57.185Z,24.92
2018-12-21T02:37:30.512Z,24.90
2018-12-21T02:38:03.892Z,24.70
2018-12-21T02:38:37.321Z,24.70
2018-12-21T02:39:10.657Z,25.82
2018-12-21T02:39:43.977Z,25.70
2018-12-21T02:40:17.312Z,25.32
2018-12-21T02:40:50.593Z,25.08
2018-12-21T02:41:23.880Z,24.90
2018-12-21T02:41:57.289Z,25.20
2018-12-21T02:42:30.597Z,24.95
2018-12-21T02:43:03.937Z,24.55
2018-12-21T02:43:37.273Z,24.82
2018-12-21T02:44:10.629Z,24.90
2018-12-21T02:44:43.945Z,24.95
2018-12-21T02:45:17.253Z,24.70
2018-12-21T02:45:50.559Z,24.70
2018-12-21T02:46:23.865Z,25.05
2018-12-21T02:46:57.203Z,25.08
2018-12-21T02:47:30.499Z,24.60
2018-12-21T02:48:04.071Z,25.52
2018-12-21T02:48:38.488Z,24.85
2018-12-21T02:49:11.811Z,25.35
2018-12-21T02:49:45.145Z,24.75
2018-12-21T02:50:18.473Z,24.70
2018-12-21T02:50:51.789Z,25.55
2018-12-21T02:51:25.205Z,25.27
2018-12-21T02:52:05.309Z,24.70
2018-12-21T02:52:34.123Z,25.30
2018-12-21T02:53:07.418Z,25.00
2018-12-21T02:53:40.732Z,24.85
2018-12-21T02:54:14.035Z,24.92
2018-12-21T02:54:47.347Z,25.02
2018-12-21T02:55:20.805Z,24.72
2018-12-21T02:55:54.111Z,24.85
2018-12-21T02:56:27.450Z,24.87
2018-12-21T02:57:00.782Z,24.50
2018-12-21T02:57:34.226Z,24.40
2018-12-21T02:58:07.553Z,24.70
2018-12-21T02:58:40.853Z,24.57
2018-12-21T02:59:14.159Z,24.82
2018-12-21T02:59:47.521Z,24.57
2018-12-21T03:00:20.855Z,24.30
2018-12-21T03:00:54.178Z,25.05
2018-12-21T03:01:27.530Z,25.20
2018-12-21T03:02:00.883Z,25.12
2018-12-21T03:02:34.217Z,24.70
2018-12-21T03:03:07.519Z,24.35
2018-12-21T03:03:40.963Z,24.90
2018-12-21T03:04:14.263Z,24.72
2018-12-21T03:04:47.591Z,24.52
2018-12-21T03:05:20.956Z,24.43
2018-12-21T03:05:54.252Z,25.05
2018-12-21T03:06:27.582Z,24.77
2018-12-21T03:07:00.903Z,25.60
2018-12-21T03:07:34.201Z,25.15
2018-12-21T03:08:07.508Z,24.60
2018-12-21T03:08:40.842Z,24.77
2018-12-21T03:09:14.183Z,25.27
2018-12-21T03:09:47.488Z,25.45
2018-12-21T03:10:20.806Z,25.35
2018-12-21T03:10:54.093Z,24.82
2018-12-21T03:11:27.395Z,25.45
2018-12-21T03:12:00.855Z,25.77
2018-12-21T03:12:34.284Z,25.57
2018-12-21T03:13:07.606Z,25.92
2018-12-21T03:13:40.921Z,26.17
2018-12-21T03:14:14.289Z,25.48
2018-12-21T03:14:47.598Z,26.40
2018-12-21T03:15:20.956Z,26.65
2018-12-21T03:15:54.276Z,26.17
2018-12-21T03:16:27.579Z,25.77
2018-12-21T03:17:00.879Z,26.30
2018-12-21T03:17:34.207Z,26.35
2018-12-21T03:18:07.641Z,25.95
2018-12-21T03:18:40.983Z,26.55
2018-12-21T03:19:14.424Z,26.50
2018-12-21T03:19:47.753Z,26.30
2018-12-21T03:20:21.092Z,26.95
2018-12-21T03:20:54.539Z,26.50
2018-12-21T03:21:28.142Z,28.25
2018-12-21T03:22:01.455Z,27.40
2018-12-21T03:22:34.799Z,28.35
2018-12-21T03:23:08.120Z,28.07
2018-12-21T03:23:41.435Z,27.75
2018-12-21T03:24:14.907Z,27.62
2018-12-21T03:24:48.260Z,28.77
2018-12-21T03:25:21.556Z,28.40
2018-12-21T03:25:54.868Z,27.70
2018-12-21T03:26:28.193Z,28.67
2018-12-21T03:27:01.526Z,28.45
2018-12-21T03:27:34.869Z,28.67
2018-12-21T03:28:08.220Z,28.80
2018-12-21T03:28:41.540Z,28.27
2018-12-21T03:29:14.873Z,28.55
2018-12-21T03:29:48.186Z,28.32
2018-12-21T03:30:21.504Z,27.90
2018-12-21T03:30:54.803Z,28.12
2018-12-21T03:31:28.153Z,28.20
2018-12-21T03:32:01.845Z,28.90
2018-12-21T03:32:35.263Z,27.90
2018-12-21T03:33:08.589Z,28.25
2018-12-21T03:33:41.907Z,27.85
2018-12-21T03:34:15.217Z,28.00
2018-12-21T03:34:48.537Z,28.00
2018-12-21T03:35:21.890Z,28.20
2018-12-21T03:35:55.315Z,27.98
2018-12-21T03:36:28.648Z,28.35
2018-12-21T03:37:02.023Z,27.80
2018-12-21T03:37:35.336Z,28.30
2018-12-21T03:38:08.638Z,27.40
2018-12-21T03:38:41.928Z,27.90
2018-12-21T03:39:15.252Z,28.80
2018-12-21T03:39:48.604Z,27.90
2018-12-21T03:40:21.932Z,29.30
2018-12-21T03:40:55.368Z,29.23
2018-12-21T03:41:28.674Z,28.45
2018-12-21T03:42:02.018Z,28.70
2018-12-21T03:42:35.314Z,28.90
2018-12-21T03:43:08.619Z,29.48
2018-12-21T03:43:41.942Z,29.63
2018-12-21T03:44:15.293Z,30.23
2018-12-21T03:44:48.617Z,30.00
2018-12-21T03:45:21.925Z,29.25
2018-12-21T03:45:55.210Z,29.50
2018-12-21T03:46:28.635Z,30.15
2018-12-21T03:47:01.982Z,30.05
2018-12-21T03:47:35.352Z,29.72
2018-12-21T03:48:08.654Z,30.23
2018-12-21T03:48:41.960Z,30.15
2018-12-21T03:49:15.300Z,29.95
2018-12-21T03:49:48.623Z,30.77
2018-12-21T03:50:22.104Z,30.23
2018-12-21T03:50:55.449Z,30.17
2018-12-21T03:51:28.804Z,29.92
2018-12-21T03:52:02.123Z,30.25
2018-12-21T03:52:35.452Z,30.50
2018-12-21T03:53:08.771Z,31.23
2018-12-21T03:53:42.060Z,30.72
2018-12-21T03:54:15.374Z,30.45
2018-12-21T03:54:48.713Z,30.95
2018-12-21T03:55:22.005Z,31.60
2018-12-21T03:55:55.318Z,31.35
2018-12-21T03:56:28.608Z,30.43
2018-12-21T03:57:01.956Z,30.85
2018-12-21T03:57:35.276Z,30.50
2018-12-21T03:58:08.711Z,30.08
2018-12-21T03:58:42.040Z,30.90
2018-12-21T03:59:15.499Z,30.82
2018-12-21T03:59:48.839Z,30.80
2018-12-21T04:00:22.166Z,30.68
2018-12-21T04:00:55.710Z,31.12
2018-12-21T04:01:35.076Z,30.40
2018-12-21T04:02:08.406Z,30.35
2018-12-21T04:02:41.724Z,31.10
2018-12-21T04:03:15.217Z,31.50
2018-12-21T04:03:48.578Z,30.68
2018-12-21T04:04:21.920Z,31.57
2018-12-21T04:04:55.461Z,31.35
2018-12-21T04:05:28.826Z,31.45
2018-12-21T04:06:02.152Z,29.77
2018-12-21T04:06:35.568Z,31.05
2018-12-21T04:07:08.908Z,30.30
2018-12-21T04:07:42.195Z,29.27
2018-12-21T04:08:15.498Z,29.80
2018-12-21T04:08:48.792Z,28.87
2018-12-21T04:09:22.114Z,29.18
2018-12-21T04:09:55.414Z,29.72
2018-12-21T04:10:28.752Z,30.17
2018-12-21T04:11:02.409Z,30.50
2018-12-21T04:11:35.724Z,30.02
2018-12-21T04:12:09.068Z,29.63
2018-12-21T04:12:42.378Z,30.12
2018-12-21T04:13:15.697Z,29.52
2018-12-21T04:13:49.113Z,30.08
2018-12-21T04:14:22.447Z,30.30
2018-12-21T04:14:55.734Z,29.52
2018-12-21T04:15:29.172Z,30.35
2018-12-21T04:16:02.609Z,30.27
2018-12-21T04:16:36.049Z,29.07
2018-12-21T04:17:09.486Z,30.00
2018-12-21T04:17:42.819Z,30.68
2018-12-21T04:18:16.132Z,30.20
2018-12-21T04:18:49.466Z,29.77
2018-12-21T04:19:22.814Z,30.27
2018-12-21T04:19:56.184Z,30.48
2018-12-21T04:20:29.602Z,30.37
2018-12-21T04:21:02.962Z,30.02
2018-12-21T04:21:36.286Z,29.80
2018-12-21T04:22:09.602Z,30.37
2018-12-21T04:22:42.931Z,30.77
2018-12-21T04:23:16.240Z,30.23
2018-12-21T04:23:49.607Z,30.35
2018-12-21T04:24:22.920Z,30.40
2018-12-21T04:24:56.240Z,30.77
2018-12-21T04:25:29.578Z,31.02
2018-12-21T04:26:04.052Z,30.35
2018-12-21T04:26:37.367Z,30.35
2018-12-21T04:27:10.727Z,30.32
2018-12-21T04:27:44.029Z,30.15
2018-12-21T04:28:17.322Z,29.82
2018-12-21T04:28:50.651Z,30.02
2018-12-21T04:29:23.968Z,30.57
2018-12-21T04:29:57.322Z,30.90
2018-12-21T04:30:30.644Z,30.37
2018-12-21T04:31:04.036Z,29.87
2018-12-21T04:31:37.359Z,30.32
2018-12-21T04:32:10.692Z,30.65
2018-12-21T04:32:43.998Z,30.95
2018-12-21T04:33:17.327Z,30.62
2018-12-21T04:33:50.688Z,30.70
2018-12-21T04:34:24.002Z,30.37
2018-12-21T04:34:57.346Z,30.37
2018-12-21T04:35:31.003Z,30.62
2018-12-21T04:36:04.446Z,30.35
2018-12-21T04:36:37.750Z,30.37
2018-12-21T04:37:11.096Z,30.85
2018-12-21T04:37:44.405Z,31.12
2018-12-21T04:38:17.781Z,30.57
2018-12-21T04:38:51.172Z,31.37
2018-12-21T04:39:24.516Z,30.52
2018-12-21T04:39:57.847Z,30.92
2018-12-21T04:40:31.140Z,30.15
2018-12-21T04:41:04.552Z,30.17
2018-12-21T04:41:37.850Z,30.57
2018-12-21T04:42:11.183Z,31.75
2018-12-21T04:42:44.614Z,31.40
2018-12-21T04:43:17.956Z,31.17
2018-12-21T04:43:51.412Z,31.02
2018-12-21T04:44:24.779Z,31.70
2018-12-21T04:44:58.106Z,31.02
2018-12-21T04:45:31.454Z,30.68
2018-12-21T04:46:04.749Z,31.17
2018-12-21T04:46:38.168Z,31.23
2018-12-21T04:47:11.481Z,32.40
2018-12-21T04:47:44.814Z,31.17
2018-12-21T04:48:18.096Z,31.97
2018-12-21T04:48:51.424Z,32.10
2018-12-21T04:49:24.746Z,32.45
2018-12-21T04:49:58.084Z,32.00
2018-12-21T04:50:31.410Z,31.37
2018-12-21T04:51:04.820Z,31.82
2018-12-21T04:51:38.117Z,31.12
2018-12-21T04:52:11.428Z,31.33
2018-12-21T04:52:44.757Z,32.05
2018-12-21T04:53:18.072Z,32.95
2018-12-21T04:53:51.432Z,31.52
2018-12-21T04:54:24.755Z,32.93
2018-12-21T04:54:58.069Z,32.67
2018-12-21T04:55:31.380Z,32.35
2018-12-21T04:56:04.807Z,33.38
2018-12-21T04:56:38.212Z,32.13
2018-12-21T04:57:11.643Z,32.25
2018-12-21T04:57:44.976Z,33.28
2018-12-21T04:58:18.299Z,32.63
2018-12-21T04:58:51.689Z,33.18
2018-12-21T04:59:25.024Z,33.00
2018-12-21T04:59:58.395Z,33.05
2018-12-21T05:00:31.766Z,32.42
2018-12-21T05:01:05.160Z,33.15
2018-12-21T05:01:45.219Z,32.53
2018-12-21T05:02:18.562Z,32.78
2018-12-21T05:02:52.125Z,33.13
2018-12-21T05:03:25.429Z,32.38
2018-12-21T05:03:58.746Z,32.65
2018-12-21T05:04:32.097Z,33.18
2018-12-21T05:05:05.708Z,33.58
2018-12-21T05:05:39.622Z,32.80
2018-12-21T05:06:13.053Z,32.73
2018-12-21T05:06:46.364Z,33.48
2018-12-21T05:07:19.773Z,33.33
2018-12-21T05:07:53.119Z,33.33
2018-12-21T05:08:26.444Z,32.78
2018-12-21T05:08:59.754Z,32.78
2018-12-21T05:09:33.112Z,33.23
2018-12-21T05:10:07.122Z,32.95
2018-12-21T05:10:40.411Z,33.20
2018-12-21T05:11:13.747Z,33.15
2018-12-21T05:11:47.073Z,32.93
2018-12-21T05:12:20.371Z,32.65
2018-12-21T05:12:53.669Z,32.78
2018-12-21T05:13:26.983Z,33.23
2018-12-21T05:14:00.327Z,32.65
2018-12-21T05:14:33.644Z,32.65
2018-12-21T05:15:07.251Z,33.67
2018-12-21T05:15:40.660Z,33.75
2018-12-21T05:16:13.969Z,33.05
2018-12-21T05:16:47.321Z,33.48
2018-12-21T05:17:20.647Z,33.42
2018-12-21T05:17:53.957Z,33.20
2018-12-21T05:18:27.261Z,33.05
2018-12-21T05:19:00.702Z,32.55
2018-12-21T05:19:34.002Z,32.58
2018-12-21T05:20:07.999Z,31.00
2018-12-21T05:20:41.391Z,32.50
2018-12-21T05:21:14.995Z,33.23
2018-12-21T05:21:48.378Z,32.53
2018-12-21T05:22:21.881Z,32.15
2018-12-21T05:22:55.400Z,32.38
2018-12-21T05:23:28.903Z,32.70
2018-12-21T05:24:02.229Z,32.20
2018-12-21T05:24:35.621Z,32.15
2018-12-21T05:25:08.965Z,31.80
2018-12-21T05:25:42.276Z,32.38
2018-12-21T05:26:15.603Z,32.33
2018-12-21T05:26:49.176Z,30.02
2018-12-21T05:27:22.605Z,31.55
2018-12-21T05:27:55.901Z,31.87
2018-12-21T05:28:29.197Z,31.95
2018-12-21T05:29:02.564Z,32.33
2018-12-21T05:29:35.875Z,31.45
2018-12-21T05:30:09.811Z,30.32
2018-12-21T05:30:43.183Z,30.48
2018-12-21T05:31:16.720Z,30.82
2018-12-21T05:31:50.161Z,30.20
2018-12-21T05:32:23.467Z,30.30
2018-12-21T05:32:56.805Z,29.50
2018-12-21T05:33:30.131Z,30.60
2018-12-21T05:34:03.506Z,30.82
2018-12-21T05:34:36.921Z,30.65
2018-12-21T05:35:10.294Z,30.70
2018-12-21T05:35:43.619Z,30.62
2018-12-21T05:36:16.907Z,30.17
2018-12-21T05:36:50.266Z,30.17
2018-12-21T05:37:23.582Z,30.50
2018-12-21T05:37:57.037Z,30.62
2018-12-21T05:38:30.337Z,29.95
2018-12-21T05:39:05.860Z,30.02
2018-12-21T05:39:39.161Z,28.55
2018-12-21T05:40:12.592Z,29.15
2018-12-21T05:40:45.907Z,29.60
2018-12-21T05:41:19.462Z,29.35
2018-12-21T05:41:52.775Z,30.05
2018-12-21T05:42:26.102Z,29.92
2018-12-21T05:42:59.795Z,29.12
2018-12-21T05:43:33.084Z,29.95
2018-12-21T05:44:06.499Z,29.50
2018-12-21T05:44:39.793Z,29.98
2018-12-21T05:45:13.309Z,30.32
2018-12-21T05:45:46.658Z,30.32
2018-12-21T05:46:20.001Z,27.98
2018-12-21T05:46:53.302Z,28.67
2018-12-21T05:47:26.618Z,27.75
2018-12-21T05:47:59.962Z,29.00
2018-12-21T05:48:33.288Z,29.18
2018-12-21T05:49:06.737Z,29.10
2018-12-21T05:49:40.076Z,28.85
2018-12-21T05:50:13.381Z,28.60
2018-12-21T05:50:46.709Z,29.23
2018-12-21T05:51:20.005Z,30.25
2018-12-21T05:51:53.449Z,29.67
2018-12-21T05:52:26.750Z,29.05
2018-12-21T05:53:00.899Z,29.63
2018-12-21T05:53:34.557Z,29.50
2018-12-21T05:54:07.880Z,30.08
2018-12-21T05:54:41.307Z,29.85
2018-12-21T05:55:14.626Z,29.52
2018-12-21T05:55:47.998Z,29.80
2018-12-21T05:56:21.322Z,28.98
2018-12-21T05:56:54.630Z,30.05
2018-12-21T05:57:27.957Z,29.75
2018-12-21T05:58:01.290Z,28.77
2018-12-21T05:58:34.604Z,30.25
2018-12-21T05:59:07.961Z,29.87
2018-12-21T05:59:41.272Z,28.23
2018-12-21T06:00:14.717Z,29.48
2018-12-21T06:00:48.059Z,28.67
2018-12-21T06:01:21.403Z,29.00
2018-12-21T06:01:54.696Z,28.83
2018-12-21T06:02:28.113Z,28.23
2018-12-21T06:03:01.429Z,28.17
2018-12-21T06:03:34.733Z,27.58
2018-12-21T06:04:08.065Z,28.17
2018-12-21T06:04:41.420Z,27.77
2018-12-21T06:05:14.768Z,28.23
2018-12-21T06:05:48.124Z,28.10
2018-12-21T06:06:21.472Z,28.12
2018-12-21T06:06:54.791Z,28.83
2018-12-21T06:07:28.084Z,28.52
2018-12-21T06:08:01.417Z,28.70
2018-12-21T06:08:34.746Z,28.35
2018-12-21T06:09:08.661Z,28.92
2018-12-21T06:09:41.999Z,28.55
2018-12-21T06:10:15.316Z,28.50
2018-12-21T06:10:48.619Z,28.87
2018-12-21T06:11:22.001Z,29.02
2018-12-21T06:11:55.319Z,28.95
2018-12-21T06:12:28.630Z,28.27
2018-12-21T06:13:01.990Z,28.80
2018-12-21T06:13:35.326Z,28.12
2018-12-21T06:14:08.641Z,28.95
2018-12-21T06:14:41.962Z,29.42
2018-12-21T06:15:15.272Z,29.27
2018-12-21T06:15:48.616Z,29.70
2018-12-21T06:16:22.463Z,29.00
2018-12-21T06:16:55.964Z,29.40
2018-12-21T06:17:29.295Z,29.25
2018-12-21T06:18:02.632Z,29.42
2018-12-21T06:18:35.947Z,29.57
2018-12-21T06:19:09.313Z,29.37
2018-12-21T06:19:42.630Z,29.15
2018-12-21T06:20:15.994Z,29.37
2018-12-21T06:20:49.324Z,29.40
2018-12-21T06:21:22.719Z,29.30
2018-12-21T06:21:56.212Z,29.32
2018-12-21T06:22:29.520Z,29.67
2018-12-21T06:23:09.487Z,29.12
2018-12-21T06:23:38.214Z,29.02
2018-12-21T06:24:11.533Z,28.98
2018-12-21T06:24:44.854Z,28.60
2018-12-21T06:25:18.283Z,29.70
2018-12-21T06:25:51.648Z,29.27
2018-12-21T06:26:24.991Z,28.90
2018-12-21T06:26:58.326Z,29.07
2018-12-21T06:27:31.656Z,29.23
2018-12-21T06:28:04.961Z,29.12
2018-12-21T06:28:38.264Z,29.07
2018-12-21T06:29:11.573Z,28.57
2018-12-21T06:29:44.898Z,28.38
2018-12-21T06:30:18.244Z,28.90
2018-12-21T06:30:51.564Z,28.92
2018-12-21T06:31:24.895Z,29.20
2018-12-21T06:31:58.203Z,28.30
2018-12-21T06:32:31.506Z,28.45
2018-12-21T06:33:04.850Z,29.10
2018-12-21T06:33:38.162Z,28.60
2018-12-21T06:34:11.512Z,28.23
2018-12-21T06:34:44.972Z,28.20
2018-12-21T06:35:18.290Z,28.50
2018-12-21T06:35:51.695Z,27.77
2018-12-21T06:36:24.985Z,28.62
2018-12-21T06:36:58.325Z,28.32
2018-12-21T06:37:31.635Z,28.10
2018-12-21T06:38:04.970Z,27.90
2018-12-21T06:38:38.327Z,28.05
2018-12-21T06:39:11.636Z,27.95
2018-12-21T06:39:44.971Z,27.87
2018-12-21T06:40:18.270Z,28.35
2018-12-21T06:40:51.595Z,28.75
2018-12-21T06:41:24.898Z,28.45
2018-12-21T06:41:58.260Z,27.87
2018-12-21T06:42:31.586Z,27.87
2018-12-21T06:43:04.910Z,28.42
2018-12-21T06:43:38.229Z,27.62
2018-12-21T06:44:11.552Z,27.60
2018-12-21T06:44:44.930Z,27.58
2018-12-21T06:45:18.268Z,28.25
2018-12-21T06:45:51.661Z,28.30
2018-12-21T06:46:24.937Z,28.12
2018-12-21T06:46:58.274Z,28.47
2018-12-21T06:47:31.610Z,27.98
2018-12-21T06:48:05.066Z,27.65
2018-12-21T06:48:38.382Z,28.45
2018-12-21T06:49:11.682Z,27.90
2018-12-21T06:49:44.988Z,27.30
2018-12-21T06:50:18.347Z,27.52
2018-12-21T06:50:51.850Z,27.37
2018-12-21T06:51:25.170Z,27.22
2018-12-21T06:51:58.507Z,27.35
2018-12-21T06:52:31.818Z,27.95
2018-12-21T06:53:05.254Z,27.62
2018-12-21T06:53:38.592Z,27.52
2018-12-21T06:54:11.910Z,26.80
2018-12-21T06:54:45.238Z,27.58
2018-12-21T06:55:18.540Z,27.40
2018-12-21T06:55:51.852Z,27.65
2018-12-21T06:56:25.186Z,27.87
2018-12-21T06:56:58.513Z,27.55
2018-12-21T06:57:31.838Z,27.45
2018-12-21T06:58:05.180Z,27.35
2018-12-21T06:58:38.479Z,27.50
2018-12-21T06:59:11.764Z,27.55
2018-12-21T06:59:45.070Z,27.02
2018-12-21T07:00:18.406Z,27.48
2018-12-21T07:00:51.756Z,27.17
2018-12-21T07:01:25.070Z,28.23
2018-12-21T07:01:58.400Z,27.77
2018-12-21T07:02:31.701Z,27.58
2018-12-21T07:03:05.014Z,27.37
2018-12-21T07:03:38.359Z,27.90
2018-12-21T07:04:11.818Z,27.55
2018-12-21T07:04:45.138Z,27.90
2018-12-21T07:05:18.464Z,27.55
2018-12-21T07:05:51.798Z,27.70
2018-12-21T07:06:25.110Z,27.45
2018-12-21T07:06:58.422Z,28.05
2018-12-21T07:07:31.730Z,27.95
2018-12-21T07:08:05.047Z,27.22
2018-12-21T07:08:38.394Z,27.35
2018-12-21T07:09:12.738Z,25.65
2018-12-21T07:09:46.196Z,26.90
2018-12-21T07:10:19.511Z,27.50
2018-12-21T07:10:52.844Z,27.15
2018-12-21T07:11:26.162Z,27.60
2018-12-21T07:11:59.482Z,27.58
2018-12-21T07:12:32.783Z,27.45
2018-12-21T07:13:06.154Z,27.98
2018-12-21T07:13:39.473Z,27.52
2018-12-21T07:14:12.788Z,28.00
2018-12-21T07:14:46.116Z,27.17